Terminal Aerodrome Forecast
Issued by NWS Bismarck, ND

Home | Current Version | Previous Version | Graphics & Text | Print | Product List | Glossary On
Versions: 1 2 3 4 5 6 7 8 9 10 11 12 13 14 15 16 17 18 19 20 21 22
000
FTUS43 KBIS 051735
TAFISN
TAF
KISN 051735Z 0518/0618 32020G29KT 1 1/2SM -SN BLSN OVC010
     FM060100 32023G32KT 2SM BLSN VCSH OVC010
     FM060400 31021G29KT P6SM OVC010
     FM061000 30018KT P6SM BKN008
     FM061300 30012KT P6SM BKN020
     FM061700 30014KT 4SM BLSN BKN020=

USA.gov is the U.S. government's official web portal to all federal, state and local government web resources and services.